createdAt,value
2018-05-09T00:00:38.433Z,995.07
2018-05-09T00:01:38.406Z,995.07
2018-05-09T00:02:38.389Z,995.09
2018-05-09T00:03:38.356Z,995.06
2018-05-09T00:04:38.333Z,995.08
2018-05-09T00:05:38.317Z,995.07
2018-05-09T00:06:38.287Z,995.08
2018-05-09T00:07:38.263Z,995.08
2018-05-09T00:08:38.245Z,995.07
2018-05-09T00:09:38.219Z,995.11
2018-05-09T00:10:38.202Z,995.08
2018-05-09T00:11:38.172Z,995.06
2018-05-09T00:12:38.156Z,995.05
2018-05-09T00:13:38.131Z,995.07
2018-05-09T00:14:38.224Z,995.06
2018-05-09T00:15:38.079Z,995.04
2018-05-09T00:16:38.057Z,995.03
2018-05-09T00:17:38.041Z,995.06
2018-05-09T00:18:38.010Z,995.03
2018-05-09T00:19:37.991Z,994.99
2018-05-09T00:20:37.963Z,994.98
2018-05-09T00:21:37.942Z,994.96
2018-05-09T00:22:37.920Z,994.99
2018-05-09T00:23:37.898Z,994.99
2018-05-09T00:24:37.874Z,995.00
2018-05-09T00:25:37.847Z,994.97
2018-05-09T00:26:37.835Z,995.00
2018-05-09T00:27:37.811Z,994.99
2018-05-09T00:28:37.780Z,994.97
2018-05-09T00:29:37.766Z,994.96
2018-05-09T00:30:37.733Z,994.99
2018-05-09T00:31:37.717Z,994.97
2018-05-09T00:32:37.695Z,994.97
2018-05-09T00:33:37.672Z,994.96
2018-05-09T00:34:37.649Z,994.98
2018-05-09T00:35:37.619Z,994.96
2018-05-09T00:36:37.606Z,994.95
2018-05-09T00:37:37.575Z,994.94
2018-05-09T00:38:37.551Z,994.95
2018-05-09T00:39:37.529Z,994.93
2018-05-09T00:40:37.509Z,994.94
2018-05-09T00:41:37.561Z,994.97
2018-05-09T00:42:37.464Z,994.92
2018-05-09T00:43:37.436Z,994.92
2018-05-09T00:44:37.419Z,994.91
2018-05-09T00:45:37.394Z,994.91
2018-05-09T00:46:37.367Z,994.90
2018-05-09T00:47:37.353Z,994.90
2018-05-09T00:48:37.319Z,994.86
2018-05-09T00:49:37.297Z,994.88
2018-05-09T00:50:37.272Z,994.84
2018-05-09T00:51:37.257Z,994.82
2018-05-09T00:52:37.235Z,994.84
2018-05-09T00:53:37.205Z,994.80
2018-05-09T00:54:37.191Z,994.79
2018-05-09T00:55:37.156Z,994.82
2018-05-09T00:56:37.143Z,994.77
2018-05-09T00:57:37.114Z,994.80
2018-05-09T00:58:37.097Z,994.79
2018-05-09T00:59:37.073Z,994.79
2018-05-09T01:00:37.049Z,994.76
2018-05-09T01:01:37.029Z,994.78
2018-05-09T01:02:36.997Z,994.75
2018-05-09T01:03:36.978Z,994.78
2018-05-09T01:04:36.955Z,994.73
2018-05-09T01:05:36.936Z,994.75
2018-05-09T01:06:36.914Z,994.72
2018-05-09T01:07:36.890Z,994.72
2018-05-09T01:08:36.880Z,994.72
2018-05-09T01:09:36.842Z,994.70
2018-05-09T01:10:36.811Z,994.74
2018-05-09T01:11:36.796Z,994.73
2018-05-09T01:12:36.770Z,994.71
2018-05-09T01:13:36.745Z,994.73
2018-05-09T01:14:36.724Z,994.75
2018-05-09T01:15:36.696Z,994.69
2018-05-09T01:16:36.681Z,994.73
2018-05-09T01:17:36.656Z,994.75
2018-05-09T01:18:36.628Z,994.76
2018-05-09T01:19:36.612Z,994.73
2018-05-09T01:20:36.583Z,994.71
2018-05-09T01:21:36.560Z,994.67
2018-05-09T01:22:36.539Z,994.67
2018-05-09T01:23:36.513Z,994.66
2018-05-09T01:24:36.497Z,994.61
2018-05-09T01:25:36.470Z,994.65
2018-05-09T01:26:36.447Z,994.63
2018-05-09T01:27:36.421Z,994.64
2018-05-09T01:28:36.403Z,994.64
2018-05-09T01:29:36.379Z,994.65
2018-05-09T01:30:36.351Z,994.63
2018-05-09T01:31:36.335Z,994.64
2018-05-09T01:32:36.308Z,994.64
2018-05-09T01:33:36.283Z,994.64
2018-05-09T01:34:36.261Z,994.67
2018-05-09T01:35:36.242Z,994.65
2018-05-09T01:36:36.212Z,994.64
2018-05-09T01:37:36.192Z,994.62
2018-05-09T01:38:36.179Z,994.63
2018-05-09T01:39:36.147Z,994.59
2018-05-09T01:40:36.125Z,994.60
2018-05-09T01:41:36.101Z,994.59
2018-05-09T01:42:36.068Z,994.57
2018-05-09T01:43:36.070Z,994.58
2018-05-09T01:44:36.029Z,994.52
2018-05-09T01:45:36.011Z,994.55
2018-05-09T01:46:35.977Z,994.54
2018-05-09T01:47:35.956Z,994.56
2018-05-09T01:48:35.938Z,994.55
2018-05-09T01:49:35.911Z,994.55
2018-05-09T01:50:35.894Z,994.54
2018-05-09T01:51:35.868Z,994.54
2018-05-09T01:52:35.845Z,994.61
2018-05-09T01:53:35.826Z,994.56
2018-05-09T01:54:35.802Z,994.52
2018-05-09T01:55:35.769Z,994.56
2018-05-09T01:56:35.752Z,994.49
2018-05-09T01:57:35.730Z,994.55
2018-05-09T01:58:35.700Z,994.49
2018-05-09T01:59:35.683Z,994.54
2018-05-09T02:00:35.664Z,994.50
2018-05-09T02:01:35.631Z,994.51
2018-05-09T02:02:35.618Z,994.53
2018-05-09T02:03:35.585Z,994.53
2018-05-09T02:04:35.564Z,994.52
2018-05-09T02:05:35.544Z,994.51
2018-05-09T02:06:35.513Z,994.55
2018-05-09T02:07:35.496Z,994.51
2018-05-09T02:08:35.469Z,994.55
2018-05-09T02:09:35.448Z,994.57
2018-05-09T02:10:35.435Z,994.57
2018-05-09T02:11:35.406Z,994.57
2018-05-09T02:12:35.380Z,994.53
2018-05-09T02:13:35.361Z,994.55
2018-05-09T02:14:35.327Z,994.52
2018-05-09T02:15:35.316Z,994.51
2018-05-09T02:16:35.282Z,994.49
2018-05-09T02:17:35.292Z,994.53
2018-05-09T02:18:35.240Z,994.51
2018-05-09T02:19:35.215Z,994.50
2018-05-09T02:20:35.190Z,994.51
2018-05-09T02:21:35.169Z,994.47
2018-05-09T02:22:35.143Z,994.47
2018-05-09T02:23:35.118Z,994.43
2018-05-09T02:24:35.103Z,994.47
2018-05-09T02:25:35.081Z,994.43
2018-05-09T02:26:35.047Z,994.38
2018-05-09T02:27:35.030Z,994.41
2018-05-09T02:28:35.002Z,994.43
2018-05-09T02:29:34.977Z,994.41
2018-05-09T02:30:34.967Z,994.40
2018-05-09T02:31:34.934Z,994.35
2018-05-09T02:32:34.917Z,994.39
2018-05-09T02:33:34.890Z,994.40
2018-05-09T02:34:34.865Z,994.35
2018-05-09T02:35:34.841Z,994.36
2018-05-09T02:36:34.823Z,994.41
2018-05-09T02:37:34.797Z,994.38
2018-05-09T02:38:34.773Z,994.37
2018-05-09T02:39:34.749Z,994.41
2018-05-09T02:40:34.723Z,994.38
2018-05-09T02:41:34.705Z,994.40
2018-05-09T02:42:34.679Z,994.42
2018-05-09T02:43:34.695Z,994.42
2018-05-09T02:44:34.633Z,994.39
2018-05-09T02:45:34.607Z,994.43
2018-05-09T02:46:34.588Z,994.45
2018-05-09T02:47:34.570Z,994.41
2018-05-09T02:48:34.535Z,994.41
2018-05-09T02:49:34.522Z,994.42
2018-05-09T02:50:34.487Z,994.41
2018-05-09T02:51:34.471Z,994.37
2018-05-09T02:52:34.443Z,994.38
2018-05-09T02:53:34.419Z,994.37
2018-05-09T02:54:34.404Z,994.42
2018-05-09T02:55:34.377Z,994.42
2018-05-09T02:56:34.357Z,994.40
2018-05-09T02:57:34.330Z,994.40
2018-05-09T02:58:34.311Z,994.41
2018-05-09T02:59:34.287Z,994.41
2018-05-09T03:00:34.260Z,994.37
2018-05-09T03:01:34.242Z,994.40
2018-05-09T03:02:34.208Z,994.42
2018-05-09T03:03:34.270Z,994.40
2018-05-09T03:04:34.165Z,994.36
2018-05-09T03:05:34.146Z,994.36
2018-05-09T03:06:34.114Z,994.37
2018-05-09T03:07:34.095Z,994.39
2018-05-09T03:08:34.069Z,994.41
2018-05-09T03:09:34.045Z,994.41
2018-05-09T03:10:34.029Z,994.41
2018-05-09T03:11:34.009Z,994.39
2018-05-09T03:12:33.973Z,994.39
2018-05-09T03:13:33.952Z,994.42
2018-05-09T03:14:33.926Z,994.42
2018-05-09T03:15:33.908Z,994.39
2018-05-09T03:16:33.903Z,994.39
2018-05-09T03:17:33.857Z,994.40
2018-05-09T03:18:33.841Z,994.42
2018-05-09T03:19:33.807Z,994.43
2018-05-09T03:20:33.792Z,994.45
2018-05-09T03:21:33.763Z,994.44
2018-05-09T03:22:33.745Z,994.44
2018-05-09T03:23:33.724Z,994.47
2018-05-09T03:24:33.693Z,994.48
2018-05-09T03:25:33.678Z,994.45
2018-05-09T03:26:33.645Z,994.45
2018-05-09T03:27:33.627Z,994.44
2018-05-09T03:28:33.713Z,994.46
2018-05-09T03:29:33.578Z,994.43
2018-05-09T03:30:33.555Z,994.41
2018-05-09T03:31:33.532Z,994.38
2018-05-09T03:32:33.513Z,994.35
2018-05-09T03:33:33.483Z,994.39
2018-05-09T03:34:33.456Z,994.35
2018-05-09T03:35:33.443Z,994.33
2018-05-09T03:36:33.410Z,994.38
2018-05-09T03:37:33.481Z,994.37
2018-05-09T03:38:33.364Z,994.36
2018-05-09T03:39:33.345Z,994.37
2018-05-09T03:40:33.327Z,994.38
2018-05-09T03:41:33.291Z,994.43
2018-05-09T03:42:33.332Z,994.45
2018-05-09T03:43:33.256Z,994.46
2018-05-09T03:44:33.231Z,994.45
2018-05-09T03:45:33.202Z,994.45
2018-05-09T03:46:33.175Z,994.46
2018-05-09T03:47:33.152Z,994.49
2018-05-09T03:48:33.298Z,994.51
2018-05-09T03:49:33.109Z,994.50
2018-05-09T03:50:33.090Z,994.51
2018-05-09T03:51:33.064Z,994.55
2018-05-09T03:52:33.045Z,994.55
2018-05-09T03:53:33.012Z,994.52
2018-05-09T03:54:32.997Z,994.53
2018-05-09T03:55:32.969Z,994.52
2018-05-09T03:56:32.948Z,994.52
2018-05-09T03:57:32.932Z,994.52
2018-05-09T03:58:32.896Z,994.52
2018-05-09T03:59:32.877Z,994.50
2018-05-09T04:00:32.850Z,994.50
2018-05-09T04:01:32.828Z,994.54
2018-05-09T04:02:32.807Z,994.52
2018-05-09T04:03:32.787Z,994.56
2018-05-09T04:04:32.769Z,994.56
2018-05-09T04:05:32.739Z,994.54
2018-05-09T04:06:32.707Z,994.60
2018-05-09T04:07:32.690Z,994.59
2018-05-09T04:08:32.665Z,994.56
2018-05-09T04:09:33.050Z,994.58
2018-05-09T04:10:32.645Z,994.57
2018-05-09T04:11:32.665Z,994.57
2018-05-09T04:12:32.575Z,994.58
2018-05-09T04:13:32.542Z,994.59
2018-05-09T04:14:32.524Z,994.60
2018-05-09T04:15:32.503Z,994.64
2018-05-09T04:16:32.470Z,994.64
2018-05-09T04:17:32.465Z,994.69
2018-05-09T04:18:32.457Z,994.65
2018-05-09T04:19:32.437Z,994.69
2018-05-09T04:20:32.414Z,994.68
2018-05-09T04:21:32.355Z,994.70
2018-05-09T04:22:32.341Z,994.70
2018-05-09T04:23:32.311Z,994.71
2018-05-09T04:24:32.286Z,994.76
2018-05-09T04:25:32.265Z,994.72
2018-05-09T04:26:32.238Z,994.73
2018-05-09T04:27:32.213Z,994.73
2018-05-09T04:28:32.195Z,994.69
2018-05-09T04:29:32.170Z,994.73
2018-05-09T04:30:32.148Z,994.72
2018-05-09T04:31:32.123Z,994.74
2018-05-09T04:32:32.102Z,994.68
2018-05-09T04:33:32.090Z,994.72
2018-05-09T04:34:32.054Z,994.73
2018-05-09T04:35:32.026Z,994.73
2018-05-09T04:36:32.027Z,994.71
2018-05-09T04:37:31.985Z,994.71
2018-05-09T04:38:31.957Z,994.74
2018-05-09T04:39:31.941Z,994.75
2018-05-09T04:40:31.904Z,994.75
2018-05-09T04:41:31.890Z,994.71
2018-05-09T04:42:31.872Z,994.71
2018-05-09T04:43:31.836Z,994.73
2018-05-09T04:44:31.820Z,994.74
2018-05-09T04:45:31.798Z,994.72
2018-05-09T04:46:31.769Z,994.73
2018-05-09T04:47:31.754Z,994.72
2018-05-09T04:48:31.724Z,994.70
2018-05-09T04:49:31.696Z,994.70
2018-05-09T04:50:31.672Z,994.73
2018-05-09T04:51:31.654Z,994.70
2018-05-09T04:52:31.624Z,994.68
2018-05-09T04:53:31.605Z,994.69
2018-05-09T04:54:31.580Z,994.70
2018-05-09T04:55:31.648Z,994.75
2018-05-09T04:56:31.538Z,994.66
2018-05-09T04:57:31.514Z,994.68
2018-05-09T04:58:31.480Z,994.65
2018-05-09T04:59:31.469Z,994.70
2018-05-09T05:00:31.437Z,994.70
2018-05-09T05:01:31.416Z,994.70
2018-05-09T05:02:31.401Z,994.70
2018-05-09T05:03:31.366Z,994.70
2018-05-09T05:04:31.352Z,994.73
2018-05-09T05:05:31.328Z,994.72
2018-05-09T05:06:31.298Z,994.80
2018-05-09T05:07:31.280Z,994.71
2018-05-09T05:08:31.249Z,994.78
2018-05-09T05:09:31.229Z,994.77
2018-05-09T05:10:31.210Z,994.73
2018-05-09T05:11:31.181Z,994.76
2018-05-09T05:12:31.163Z,994.74
2018-05-09T05:13:31.141Z,994.74
2018-05-09T05:14:31.110Z,994.74
2018-05-09T05:15:31.096Z,994.75
2018-05-09T05:16:31.073Z,994.75
2018-05-09T05:17:31.039Z,994.78
2018-05-09T05:18:31.028Z,994.76
2018-05-09T05:19:30.994Z,994.77
2018-05-09T05:20:30.977Z,994.75
2018-05-09T05:21:30.950Z,994.75
2018-05-09T05:22:30.929Z,994.78
2018-05-09T05:23:30.905Z,994.77
2018-05-09T05:24:30.880Z,994.82
2018-05-09T05:25:30.859Z,994.82
2018-05-09T05:26:30.832Z,994.84
2018-05-09T05:27:30.805Z,994.89
2018-05-09T05:28:30.790Z,994.92
2018-05-09T05:29:30.759Z,994.88
2018-05-09T05:30:30.744Z,994.94
2018-05-09T05:31:30.715Z,994.89
2018-05-09T05:32:30.698Z,994.88
2018-05-09T05:33:30.675Z,994.96
2018-05-09T05:34:30.645Z,994.95
2018-05-09T05:35:30.626Z,994.89
2018-05-09T05:36:30.607Z,994.88
2018-05-09T05:37:30.579Z,994.92
2018-05-09T05:38:30.552Z,994.88
2018-05-09T05:39:30.528Z,994.88
2018-05-09T05:40:30.520Z,994.92
2018-05-09T05:41:30.483Z,994.87
2018-05-09T05:42:30.455Z,994.87
2018-05-09T05:43:30.462Z,994.90
2018-05-09T05:44:30.411Z,994.91
2018-05-09T05:45:30.420Z,994.90
2018-05-09T05:46:30.369Z,994.90
2018-05-09T05:47:30.346Z,994.89
2018-05-09T05:48:30.319Z,994.90
2018-05-09T05:49:30.297Z,994.87
2018-05-09T05:50:30.278Z,994.87
2018-05-09T05:51:30.258Z,994.85
2018-05-09T05:52:30.238Z,994.89
2018-05-09T05:53:30.214Z,994.91
2018-05-09T05:54:30.179Z,994.89
2018-05-09T05:55:30.155Z,994.89
2018-05-09T05:56:30.142Z,994.88
2018-05-09T05:57:30.109Z,994.91
2018-05-09T05:58:30.089Z,994.84
2018-05-09T05:59:30.069Z,994.90
2018-05-09T06:00:30.046Z,994.89
2018-05-09T06:01:30.016Z,994.91
2018-05-09T06:02:30.003Z,994.91
2018-05-09T06:03:29.978Z,994.89
2018-05-09T06:04:29.948Z,994.87
2018-05-09T06:05:29.927Z,994.91
2018-05-09T06:06:29.980Z,994.89
2018-05-09T06:07:29.881Z,994.82
2018-05-09T06:08:29.865Z,994.82
2018-05-09T06:09:29.839Z,994.81
2018-05-09T06:10:29.816Z,994.81
2018-05-09T06:11:29.795Z,994.84
2018-05-09T06:12:29.765Z,994.79
2018-05-09T06:13:29.741Z,994.83
2018-05-09T06:14:29.725Z,994.79
2018-05-09T06:15:29.706Z,994.82
2018-05-09T06:16:29.680Z,994.83
2018-05-09T06:17:29.652Z,994.83
2018-05-09T06:18:29.632Z,994.82
2018-05-09T06:19:29.611Z,994.83
2018-05-09T06:20:29.584Z,994.86
2018-05-09T06:21:29.562Z,994.90
2018-05-09T06:22:29.535Z,994.93
2018-05-09T06:23:29.514Z,994.91
2018-05-09T06:24:29.494Z,994.93
2018-05-09T06:25:29.470Z,994.94
2018-05-09T06:26:29.447Z,994.91
2018-05-09T06:27:29.422Z,994.92
2018-05-09T06:28:29.398Z,994.96
2018-05-09T06:29:29.381Z,994.96
2018-05-09T06:30:29.352Z,994.94
2018-05-09T06:31:29.335Z,994.95
2018-05-09T06:32:29.308Z,994.95
2018-05-09T06:33:29.288Z,994.96
2018-05-09T06:34:29.258Z,995.00
2018-05-09T06:35:29.239Z,995.01
2018-05-09T06:36:29.218Z,995.05
2018-05-09T06:37:29.196Z,995.07
2018-05-09T06:38:29.173Z,995.06
2018-05-09T06:39:29.150Z,995.07
2018-05-09T06:40:29.129Z,995.10
2018-05-09T06:41:29.106Z,995.11
2018-05-09T06:42:29.090Z,995.12
2018-05-09T06:43:29.056Z,995.09
2018-05-09T06:44:29.038Z,995.10
2018-05-09T06:45:29.018Z,995.09
2018-05-09T06:46:28.984Z,995.10
2018-05-09T06:47:28.966Z,995.12
2018-05-09T06:48:28.946Z,995.12
2018-05-09T06:49:28.927Z,995.14
2018-05-09T06:50:28.896Z,995.10
2018-05-09T06:51:28.878Z,995.09
2018-05-09T06:52:28.850Z,995.09
2018-05-09T06:53:28.828Z,995.08
2018-05-09T06:54:28.817Z,995.08
2018-05-09T06:55:28.791Z,995.08
2018-05-09T06:56:28.764Z,995.05
2018-05-09T06:57:28.743Z,995.07
2018-05-09T06:58:28.723Z,995.08
2018-05-09T06:59:28.691Z,995.08
2018-05-09T07:00:28.677Z,995.07
2018-05-09T07:01:28.650Z,995.08
2018-05-09T07:02:28.643Z,995.08
2018-05-09T07:03:28.604Z,995.07
2018-05-09T07:04:28.587Z,995.09
2018-05-09T07:05:28.557Z,995.10
2018-05-09T07:06:28.640Z,995.10
2018-05-09T07:07:28.515Z,995.09
2018-05-09T07:08:28.486Z,995.11
2018-05-09T07:09:28.471Z,995.13
2018-05-09T07:10:28.442Z,995.15
2018-05-09T07:11:28.420Z,995.16
2018-05-09T07:12:28.488Z,995.15
2018-05-09T07:13:28.381Z,995.18
2018-05-09T07:14:28.354Z,995.14
2018-05-09T07:15:28.329Z,995.17
2018-05-09T07:16:28.308Z,995.17
2018-05-09T07:17:28.290Z,995.17
2018-05-09T07:18:28.266Z,995.19
2018-05-09T07:19:28.248Z,995.16
2018-05-09T07:20:28.217Z,995.19
2018-05-09T07:21:28.193Z,995.18
2018-05-09T07:22:28.181Z,995.18
2018-05-09T07:23:28.152Z,995.17
2018-05-09T07:24:28.134Z,995.17
2018-05-09T07:25:28.113Z,995.16
2018-05-09T07:26:28.082Z,995.14
2018-05-09T07:27:28.057Z,995.14
2018-05-09T07:28:28.041Z,995.12
2018-05-09T07:29:28.013Z,995.16
2018-05-09T07:30:27.994Z,995.17
2018-05-09T07:31:27.972Z,995.15
2018-05-09T07:32:27.946Z,995.16
2018-05-09T07:33:27.928Z,995.13
2018-05-09T07:34:27.904Z,995.12
2018-05-09T07:35:27.966Z,995.11
2018-05-09T07:36:27.863Z,995.08
2018-05-09T07:37:27.844Z,995.07
2018-05-09T07:38:27.812Z,995.04
2018-05-09T07:39:27.799Z,995.00
2018-05-09T07:40:27.772Z,995.05
2018-05-09T07:41:27.746Z,995.04
2018-05-09T07:42:27.731Z,995.05
2018-05-09T07:43:27.704Z,995.03
2018-05-09T07:44:27.676Z,995.04
2018-05-09T07:45:27.664Z,995.02
2018-05-09T07:46:27.641Z,995.01
2018-05-09T07:47:27.616Z,995.05
2018-05-09T07:48:27.594Z,995.02
2018-05-09T07:49:27.573Z,995.04
2018-05-09T07:50:27.545Z,995.05
2018-05-09T07:51:27.526Z,994.97
2018-05-09T07:52:27.505Z,995.03
2018-05-09T07:53:27.483Z,995.01
2018-05-09T07:54:27.459Z,995.01
2018-05-09T07:55:27.462Z,994.99
2018-05-09T07:56:27.417Z,995.02
2018-05-09T07:57:27.392Z,994.99
2018-05-09T07:58:27.370Z,994.98
2018-05-09T07:59:27.346Z,994.99
2018-05-09T08:00:27.324Z,994.97
2018-05-09T08:01:27.299Z,995.01
2018-05-09T08:02:27.280Z,994.99
2018-05-09T08:03:27.266Z,995.03
2018-05-09T08:04:27.237Z,995.02
2018-05-09T08:05:27.212Z,995.01
2018-05-09T08:06:27.195Z,995.05
2018-05-09T08:07:27.175Z,995.05
2018-05-09T08:08:27.144Z,995.07
2018-05-09T08:09:27.129Z,995.05
2018-05-09T08:10:27.099Z,995.05
2018-05-09T08:11:27.078Z,995.04
2018-05-09T08:12:27.064Z,995.02
2018-05-09T08:13:27.036Z,995.05
2018-05-09T08:14:27.020Z,995.04
2018-05-09T08:15:26.992Z,995.03
2018-05-09T08:16:26.977Z,995.06
2018-05-09T08:17:26.955Z,995.04
2018-05-09T08:18:26.934Z,995.05
2018-05-09T08:19:26.904Z,995.12
2018-05-09T08:20:26.885Z,995.10
2018-05-09T08:21:26.863Z,995.08
2018-05-09T08:22:26.847Z,995.08
2018-05-09T08:23:26.827Z,995.12
2018-05-09T08:24:26.793Z,995.08
2018-05-09T08:25:26.777Z,995.10
2018-05-09T08:26:26.752Z,995.11
2018-05-09T08:27:26.729Z,995.11
2018-05-09T08:28:26.710Z,995.14
2018-05-09T08:29:26.685Z,995.12
2018-05-09T08:30:26.696Z,995.13
2018-05-09T08:31:26.641Z,995.12
2018-05-09T08:32:26.624Z,995.10
2018-05-09T08:33:26.595Z,995.12
2018-05-09T08:34:26.575Z,995.13
2018-05-09T08:35:26.553Z,995.14
2018-05-09T08:36:26.530Z,995.17
2018-05-09T08:37:26.509Z,995.16
2018-05-09T08:38:26.490Z,995.14
2018-05-09T08:39:26.471Z,995.16
2018-05-09T08:40:26.442Z,995.15
2018-05-09T08:41:26.423Z,995.15
2018-05-09T08:42:26.403Z,995.13
2018-05-09T08:43:26.482Z,995.13
2018-05-09T08:44:26.363Z,995.15
2018-05-09T08:45:26.339Z,995.15
2018-05-09T08:46:26.316Z,995.15
2018-05-09T08:47:26.291Z,995.13
2018-05-09T08:48:26.269Z,995.16
2018-05-09T08:49:26.296Z,995.09
2018-05-09T08:50:26.227Z,995.12
2018-05-09T08:51:26.206Z,995.11
2018-05-09T08:52:26.184Z,995.12
2018-05-09T08:53:26.160Z,995.12
2018-05-09T08:54:26.140Z,995.14
2018-05-09T08:55:26.133Z,995.11
2018-05-09T08:56:26.102Z,995.11
2018-05-09T08:57:26.078Z,995.08
2018-05-09T08:58:26.054Z,995.11
2018-05-09T08:59:26.035Z,995.11
2018-05-09T09:00:26.009Z,995.15
2018-05-09T09:01:25.986Z,995.12
2018-05-09T09:02:25.970Z,995.10
2018-05-09T09:03:25.941Z,995.13
2018-05-09T09:04:26.003Z,995.11
2018-05-09T09:05:25.900Z,995.10
2018-05-09T09:06:25.883Z,995.12
2018-05-09T09:07:25.864Z,995.08
2018-05-09T09:08:25.834Z,995.10
2018-05-09T09:09:25.814Z,995.06
2018-05-09T09:10:25.794Z,995.10
2018-05-09T09:11:25.771Z,995.08
2018-05-09T09:12:25.753Z,995.10
2018-05-09T09:13:25.734Z,995.05
2018-05-09T09:14:25.803Z,995.07
2018-05-09T09:15:25.698Z,995.04
2018-05-09T09:16:25.663Z,995.04
2018-05-09T09:17:25.686Z,995.05
2018-05-09T09:18:25.618Z,994.99
2018-05-09T09:19:25.605Z,994.97
2018-05-09T09:20:25.581Z,995.00
2018-05-09T09:21:25.561Z,994.96
2018-05-09T09:22:25.553Z,995.01
2018-05-09T09:23:25.572Z,995.02
2018-05-09T09:24:25.490Z,994.99
2018-05-09T09:25:25.472Z,995.01
2018-05-09T09:26:25.443Z,995.03
2018-05-09T09:27:25.420Z,995.00
2018-05-09T09:28:25.407Z,995.02
2018-05-09T09:29:25.387Z,995.00
2018-05-09T09:30:25.358Z,994.98
2018-05-09T09:31:25.342Z,994.99
2018-05-09T09:32:25.315Z,994.99
2018-05-09T09:33:25.296Z,994.98
2018-05-09T09:34:25.285Z,994.97
2018-05-09T09:35:25.249Z,994.97
2018-05-09T09:36:25.235Z,994.98
2018-05-09T09:37:25.210Z,994.92
2018-05-09T09:38:25.192Z,994.90
2018-05-09T09:39:25.190Z,994.89
2018-05-09T09:40:25.153Z,994.81
2018-05-09T09:41:25.159Z,994.79
2018-05-09T09:42:25.104Z,994.78
2018-05-09T09:43:25.080Z,994.75
2018-05-09T09:44:25.065Z,994.76
2018-05-09T09:45:25.038Z,994.79
2018-05-09T09:46:25.017Z,994.79
2018-05-09T09:47:24.996Z,994.78
2018-05-09T09:48:24.970Z,994.78
2018-05-09T09:49:24.953Z,994.78
2018-05-09T09:50:24.927Z,994.79
2018-05-09T09:51:24.905Z,994.79
2018-05-09T09:52:24.887Z,994.73
2018-05-09T09:53:24.867Z,994.74
2018-05-09T09:54:24.837Z,994.73
2018-05-09T09:55:24.826Z,994.73
2018-05-09T09:56:24.807Z,994.74
2018-05-09T09:57:24.775Z,994.72
2018-05-09T09:58:24.759Z,994.72
2018-05-09T09:59:24.730Z,994.71
2018-05-09T10:00:24.717Z,994.72
2018-05-09T10:01:24.689Z,994.71
2018-05-09T10:02:24.674Z,994.68
2018-05-09T10:03:24.653Z,994.68
2018-05-09T10:04:24.634Z,994.63
2018-05-09T10:05:24.614Z,994.63
2018-05-09T10:06:24.579Z,994.63
2018-05-09T10:07:24.559Z,994.59
2018-05-09T10:08:24.547Z,994.59
2018-05-09T10:09:24.515Z,994.63
2018-05-09T10:10:24.502Z,994.53
2018-05-09T10:11:24.482Z,994.55
2018-05-09T10:12:24.452Z,994.58
2018-05-09T10:13:24.438Z,994.56
2018-05-09T10:14:24.413Z,994.53
2018-05-09T10:15:24.394Z,994.54
2018-05-09T10:16:24.393Z,994.53
2018-05-09T10:17:24.353Z,994.55
2018-05-09T10:18:24.326Z,994.56
2018-05-09T10:19:24.304Z,994.55
2018-05-09T10:20:24.291Z,994.50
2018-05-09T10:21:24.263Z,994.48
2018-05-09T10:22:24.246Z,994.54
2018-05-09T10:23:24.217Z,994.51
2018-05-09T10:24:24.200Z,994.49
2018-05-09T10:25:24.182Z,994.45
2018-05-09T10:26:24.162Z,994.42
2018-05-09T10:27:24.133Z,994.45
2018-05-09T10:28:24.112Z,994.39
2018-05-09T10:29:24.095Z,994.33
2018-05-09T10:30:24.071Z,994.34
2018-05-09T10:31:24.125Z,994.28
2018-05-09T10:32:24.028Z,994.33
2018-05-09T10:33:24.005Z,994.28
2018-05-09T10:34:23.993Z,994.31
2018-05-09T10:35:23.971Z,994.29
2018-05-09T10:36:23.941Z,994.26
2018-05-09T10:37:23.927Z,994.29
2018-05-09T10:38:23.904Z,994.30
2018-05-09T10:39:23.876Z,994.25
2018-05-09T10:40:23.863Z,994.29
2018-05-09T10:41:23.841Z,994.29
2018-05-09T10:42:23.822Z,994.28
2018-05-09T10:43:23.795Z,994.27
2018-05-09T10:44:23.769Z,994.27
2018-05-09T10:45:23.758Z,994.28
2018-05-09T10:46:23.727Z,994.23
2018-05-09T10:47:23.765Z,994.21
2018-05-09T10:48:23.684Z,994.21
2018-05-09T10:49:23.669Z,994.20
2018-05-09T10:50:23.649Z,994.17
2018-05-09T10:51:23.627Z,994.15
2018-05-09T10:52:23.606Z,994.16
2018-05-09T10:53:23.583Z,994.17
2018-05-09T10:54:23.567Z,994.15
2018-05-09T10:55:23.542Z,994.13
2018-05-09T10:56:23.523Z,994.13
2018-05-09T10:57:23.506Z,994.14
2018-05-09T10:58:23.477Z,994.13
2018-05-09T10:59:23.458Z,994.12
2018-05-09T11:00:23.436Z,994.09
2018-05-09T11:01:23.413Z,994.09
2018-05-09T11:02:23.401Z,994.07
2018-05-09T11:03:23.371Z,994.05
2018-05-09T11:04:23.356Z,994.04
2018-05-09T11:05:23.333Z,994.08
2018-05-09T11:06:23.311Z,994.07
2018-05-09T11:07:23.305Z,994.08
2018-05-09T11:08:23.269Z,994.03
2018-05-09T11:09:23.246Z,994.02
2018-05-09T11:10:23.255Z,994.02
2018-05-09T11:11:23.201Z,993.98
2018-05-09T11:12:23.190Z,994.02
2018-05-09T11:13:23.159Z,993.99
2018-05-09T11:14:23.147Z,993.95
2018-05-09T11:15:23.129Z,993.97
2018-05-09T11:16:23.095Z,993.94
2018-05-09T11:17:23.085Z,993.96
2018-05-09T11:18:23.057Z,993.91
2018-05-09T11:19:23.037Z,993.91
2018-05-09T11:20:23.086Z,993.95
2018-05-09T11:21:22.996Z,993.92
2018-05-09T11:22:22.976Z,993.99
2018-05-09T11:23:22.948Z,993.98
2018-05-09T11:24:22.941Z,994.00
2018-05-09T11:25:22.915Z,993.96
2018-05-09T11:26:22.888Z,993.98
2018-05-09T11:27:22.866Z,993.96
2018-05-09T11:28:22.856Z,993.98
2018-05-09T11:29:22.830Z,993.98
2018-05-09T11:30:22.806Z,993.98
2018-05-09T11:31:22.794Z,993.99
2018-05-09T11:32:22.763Z,993.96
2018-05-09T11:33:22.744Z,993.95
2018-05-09T11:34:22.728Z,993.94
2018-05-09T11:35:22.701Z,993.96
2018-05-09T11:36:22.681Z,993.93
2018-05-09T11:37:22.729Z,993.97
2018-05-09T11:38:22.637Z,993.87
2018-05-09T11:39:22.622Z,993.90
2018-05-09T11:40:22.600Z,993.90
2018-05-09T11:41:22.575Z,993.82
2018-05-09T11:42:22.557Z,993.81
2018-05-09T11:43:22.542Z,993.82
2018-05-09T11:44:22.520Z,993.81
2018-05-09T11:45:22.499Z,993.77
2018-05-09T11:46:22.477Z,993.75
2018-05-09T11:47:22.458Z,993.71
2018-05-09T11:48:22.436Z,993.70
2018-05-09T11:49:22.421Z,993.69
2018-05-09T11:50:22.394Z,993.70
2018-05-09T11:51:22.369Z,993.69
2018-05-09T11:52:22.352Z,993.66
2018-05-09T11:53:22.329Z,993.70
2018-05-09T11:54:22.320Z,993.64
2018-05-09T11:55:22.696Z,993.63
2018-05-09T11:56:22.288Z,993.64
2018-05-09T11:57:22.256Z,993.65
2018-05-09T11:58:22.231Z,993.63
2018-05-09T11:59:22.213Z,993.61
2018-05-09T12:00:22.196Z,993.60
2018-05-09T12:01:22.170Z,993.62
2018-05-09T12:02:22.327Z,993.60
2018-05-09T12:03:22.131Z,993.63
2018-05-09T12:04:22.108Z,993.58
2018-05-09T12:05:22.085Z,993.57
2018-05-09T12:06:22.077Z,993.57
2018-05-09T12:07:22.051Z,993.61
2018-05-09T12:08:22.027Z,993.58
2018-05-09T12:09:22.013Z,993.60
2018-05-09T12:10:22.019Z,993.58
2018-05-09T12:11:21.960Z,993.60
2018-05-09T12:12:21.951Z,993.59
2018-05-09T12:13:21.921Z,993.64
2018-05-09T12:14:21.901Z,993.62
2018-05-09T12:15:21.886Z,993.66
2018-05-09T12:16:21.859Z,993.63
2018-05-09T12:17:21.841Z,993.63
2018-05-09T12:18:21.824Z,993.60
2018-05-09T12:19:21.798Z,993.63
2018-05-09T12:20:21.791Z,993.65
2018-05-09T12:21:21.765Z,993.66
2018-05-09T12:22:21.740Z,993.57
2018-05-09T12:23:21.728Z,993.65
2018-05-09T12:24:21.708Z,993.60
2018-05-09T12:25:21.680Z,993.61
2018-05-09T12:26:21.673Z,993.65
2018-05-09T12:27:21.640Z,993.60
2018-05-09T12:28:21.623Z,993.59